createdAt,value
2023-04-04T00:00:30.495Z,35.30
2023-04-04T00:02:57.555Z,35.40
2023-04-04T00:05:24.595Z,35.40
2023-04-04T00:07:51.488Z,35.60
2023-04-04T00:10:18.409Z,35.50
2023-04-04T00:12:45.427Z,35.70
2023-04-04T00:15:12.762Z,35.60
2023-04-04T00:17:39.765Z,35.80
2023-04-04T00:20:07.587Z,36.10
2023-04-04T00:22:34.475Z,36.10
2023-04-04T00:25:01.568Z,36.20
2023-04-04T00:27:28.546Z,36.10
2023-04-04T00:29:55.948Z,36.20
2023-04-04T00:32:22.998Z,36.30
2023-04-04T00:34:57.430Z,36.20
2023-04-04T00:37:24.442Z,36.40
2023-04-04T00:39:51.309Z,36.30
2023-04-04T00:42:18.689Z,36.40
2023-04-04T00:44:45.936Z,36.50
2023-04-04T00:47:12.959Z,36.70
2023-04-04T00:49:39.821Z,36.60
2023-04-04T00:52:07.902Z,36.80
2023-04-04T00:54:35.833Z,36.90
2023-04-04T00:57:05.417Z,37.00
2023-04-04T00:59:33.183Z,37.00
2023-04-04T01:02:01.281Z,37.00
2023-04-04T01:04:31.661Z,37.10
2023-04-04T01:06:59.166Z,37.40
2023-04-04T01:09:26.578Z,37.30
2023-04-04T01:11:55.748Z,37.40
2023-04-04T01:14:23.362Z,37.50
2023-04-04T01:16:51.605Z,37.50
2023-04-04T01:20:02.572Z,37.50
2023-04-04T01:22:31.464Z,37.50
2023-04-04T01:25:01.013Z,37.70
2023-04-04T01:27:27.944Z,37.70
2023-04-04T01:29:55.100Z,37.60
2023-04-04T01:32:33.977Z,37.60
2023-04-04T01:35:25.823Z,37.70
2023-04-04T01:38:20.761Z,37.80
2023-04-04T01:40:55.519Z,37.80
2023-04-04T01:43:22.447Z,37.80
2023-04-04T01:45:50.793Z,37.70
2023-04-04T01:48:17.750Z,37.80
2023-04-04T01:50:44.629Z,38.00
2023-04-04T01:53:11.632Z,38.10
2023-04-04T01:55:38.471Z,38.20
2023-04-04T01:58:05.663Z,37.90
2023-04-04T02:00:32.567Z,37.60
2023-04-04T02:03:00.460Z,37.70
2023-04-04T02:05:27.574Z,37.70
2023-04-04T02:07:54.589Z,38.00
2023-04-04T02:10:21.549Z,37.80
2023-04-04T02:12:48.615Z,37.80
2023-04-04T02:15:15.543Z,37.90
2023-04-04T02:17:47.705Z,38.00
2023-04-04T02:20:14.918Z,38.00
2023-04-04T02:22:42.246Z,37.80
2023-04-04T02:25:09.601Z,37.50
2023-04-04T02:27:36.565Z,37.40
2023-04-04T02:30:03.546Z,37.30
2023-04-04T02:32:30.395Z,37.40
2023-04-04T02:34:57.317Z,37.10
2023-04-04T02:37:24.176Z,37.10
2023-04-04T02:39:51.227Z,37.10
2023-04-04T02:42:18.122Z,37.30
2023-04-04T02:44:44.956Z,37.00
2023-04-04T02:47:12.310Z,37.00
2023-04-04T02:49:39.456Z,37.20
2023-04-04T02:52:08.376Z,36.90
2023-04-04T02:54:35.245Z,36.90
2023-04-04T02:57:02.190Z,36.90
2023-04-04T02:59:29.174Z,36.70
2023-04-04T03:01:56.223Z,37.00
2023-04-04T03:04:23.369Z,37.60
2023-04-04T03:06:50.308Z,36.90
2023-04-04T03:09:17.350Z,36.90
2023-04-04T03:11:44.601Z,36.80
2023-04-04T03:14:12.174Z,36.90
2023-04-04T03:16:39.600Z,36.60
2023-04-04T03:19:06.563Z,36.70
2023-04-04T03:21:33.426Z,36.80
2023-04-04T03:24:00.348Z,36.60
2023-04-04T03:26:29.439Z,36.50
2023-04-04T03:28:56.656Z,36.50
2023-04-04T03:31:23.563Z,36.60
2023-04-04T03:33:50.593Z,36.70
2023-04-04T03:36:17.428Z,36.50
2023-04-04T03:38:44.328Z,36.40
2023-04-04T03:41:11.323Z,36.50
2023-04-04T03:43:38.225Z,36.30
2023-04-04T03:46:06.264Z,36.00
2023-04-04T03:48:34.298Z,36.10
2023-04-04T03:51:03.852Z,36.00
2023-04-04T03:53:30.954Z,36.20
2023-04-04T03:55:58.317Z,36.40
2023-04-04T03:58:25.281Z,36.40
2023-04-04T04:00:52.113Z,36.40
2023-04-04T04:03:19.061Z,35.90
2023-04-04T04:05:45.988Z,35.60
2023-04-04T04:08:13.011Z,35.60
2023-04-04T04:10:40.263Z,35.40
2023-04-04T04:13:07.405Z,35.40
2023-04-04T04:15:34.276Z,35.40
2023-04-04T04:18:01.514Z,35.30
2023-04-04T04:20:28.416Z,35.40
2023-04-04T04:22:55.369Z,35.30
2023-04-04T04:25:22.492Z,35.50
2023-04-04T04:27:49.344Z,35.30
2023-04-04T04:30:16.243Z,35.20
2023-04-04T04:32:43.160Z,35.20
2023-04-04T04:35:10.075Z,35.30
2023-04-04T04:37:37.241Z,35.40
2023-04-04T04:40:04.902Z,35.40
2023-04-04T04:42:31.839Z,35.70
2023-04-04T04:44:58.673Z,35.60
2023-04-04T04:47:25.610Z,35.70
2023-04-04T04:49:52.633Z,35.80
2023-04-04T04:52:19.707Z,36.00
2023-04-04T04:54:46.631Z,35.90
2023-04-04T04:57:13.562Z,36.20
2023-04-04T04:59:41.434Z,36.20
2023-04-04T05:02:08.470Z,36.40
2023-04-04T05:04:35.480Z,36.50
2023-04-04T05:07:02.584Z,36.50
2023-04-04T05:09:29.598Z,36.60
2023-04-04T05:11:57.265Z,36.30
2023-04-04T05:14:24.545Z,36.30
2023-04-04T05:16:51.537Z,36.30
2023-04-04T05:19:18.488Z,36.60
2023-04-04T05:21:45.949Z,36.80
2023-04-04T05:24:13.288Z,36.70
2023-04-04T05:26:40.194Z,36.80
2023-04-04T05:29:07.166Z,36.60
2023-04-04T05:31:34.331Z,36.60
2023-04-04T05:34:08.072Z,36.60
2023-04-04T05:36:38.154Z,36.60
2023-04-04T05:39:05.105Z,36.70
2023-04-04T05:41:32.322Z,36.50
2023-04-04T05:43:59.789Z,36.70
2023-04-04T05:46:27.081Z,36.70
2023-04-04T05:48:54.014Z,36.50
2023-04-04T05:51:21.175Z,36.70
2023-04-04T05:53:48.918Z,36.50
2023-04-04T05:56:15.824Z,36.70
2023-04-04T05:58:43.201Z,36.50
2023-04-04T06:01:10.779Z,36.50
2023-04-04T06:03:37.945Z,36.80
2023-04-04T06:06:05.584Z,36.80
2023-04-04T06:08:40.087Z,37.40
2023-04-04T06:11:17.398Z,36.70
2023-04-04T06:13:44.320Z,36.90
2023-04-04T06:16:11.598Z,36.90
2023-04-04T06:18:38.589Z,36.50
2023-04-04T06:21:05.484Z,36.50
2023-04-04T06:23:32.312Z,36.40
2023-04-04T06:25:59.512Z,36.40
2023-04-04T06:28:26.583Z,36.50
2023-04-04T06:30:53.468Z,36.40
2023-04-04T06:33:20.415Z,36.30
2023-04-04T06:35:47.424Z,36.20
2023-04-04T06:38:14.320Z,36.20
2023-04-04T06:40:41.531Z,36.30
2023-04-04T06:43:09.206Z,36.10
2023-04-04T06:45:36.247Z,36.20
2023-04-04T06:48:03.737Z,36.50
2023-04-04T06:50:32.548Z,36.60
2023-04-04T06:53:02.051Z,36.60
2023-04-04T06:55:29.397Z,36.70
2023-04-04T06:57:56.377Z,36.40
2023-04-04T07:00:24.025Z,36.30
2023-04-04T07:02:57.122Z,35.60
2023-04-04T07:05:24.006Z,35.90
2023-04-04T07:07:55.137Z,35.80
2023-04-04T07:10:22.815Z,35.20
2023-04-04T07:12:49.731Z,35.60
2023-04-04T07:15:16.807Z,35.60
2023-04-04T07:17:43.768Z,35.50
2023-04-04T07:20:11.509Z,35.10
2023-04-04T07:22:39.762Z,35.40
2023-04-04T07:25:07.283Z,35.60
2023-04-04T07:27:34.294Z,35.70
2023-04-04T07:30:01.204Z,35.50
2023-04-04T07:32:29.595Z,35.40
2023-04-04T07:34:56.766Z,35.30
2023-04-04T07:37:23.699Z,35.40
2023-04-04T07:39:50.684Z,35.20
2023-04-04T07:42:23.049Z,35.20
2023-04-04T07:44:52.941Z,35.10
2023-04-04T07:47:20.707Z,34.90
2023-04-04T07:49:47.624Z,34.90
2023-04-04T07:52:14.555Z,34.70
2023-04-04T07:54:41.496Z,34.70
2023-04-04T07:57:10.012Z,34.60
2023-04-04T07:59:37.904Z,34.80
2023-04-04T08:02:04.912Z,35.00
2023-04-04T08:04:31.941Z,34.80
2023-04-04T08:06:58.997Z,34.60
2023-04-04T08:09:25.948Z,34.50
2023-04-04T08:11:52.907Z,33.70
2023-04-04T08:14:19.794Z,34.20
2023-04-04T08:16:46.688Z,34.00
2023-04-04T08:19:13.870Z,33.90
2023-04-04T08:21:40.762Z,34.00
2023-04-04T08:24:07.964Z,33.60
2023-04-04T08:26:34.946Z,33.00
2023-04-04T08:29:02.190Z,33.50
2023-04-04T08:31:29.936Z,34.40
2023-04-04T08:33:57.076Z,34.50
2023-04-04T08:36:24.485Z,33.80
2023-04-04T08:38:51.335Z,33.60
2023-04-04T08:41:18.398Z,32.80
2023-04-04T08:43:54.390Z,32.50
2023-04-04T08:46:25.899Z,32.10
2023-04-04T08:48:54.491Z,30.90
2023-04-04T08:51:22.862Z,30.90
2023-04-04T08:53:50.294Z,30.30
2023-04-04T08:56:17.496Z,30.00
2023-04-04T08:58:44.692Z,29.70
2023-04-04T09:01:12.283Z,29.80
2023-04-04T09:03:40.734Z,29.70
2023-04-04T09:06:08.855Z,29.90
2023-04-04T09:08:36.372Z,30.50
2023-04-04T09:11:04.560Z,30.00
2023-04-04T09:13:31.438Z,29.50
2023-04-04T09:16:00.658Z,29.50
2023-04-04T09:18:27.570Z,29.60
2023-04-04T09:20:54.596Z,29.20
2023-04-04T09:23:23.646Z,29.20
2023-04-04T09:26:03.199Z,29.00
2023-04-04T09:28:31.971Z,29.10
2023-04-04T09:31:03.155Z,29.50
2023-04-04T09:33:33.238Z,29.00
2023-04-04T09:36:07.149Z,29.10
2023-04-04T09:38:37.961Z,28.90
2023-04-04T09:41:09.914Z,29.20
2023-04-04T09:43:37.746Z,29.40
2023-04-04T09:46:06.889Z,29.90
2023-04-04T09:48:36.316Z,29.80
2023-04-04T09:51:12.704Z,29.90
2023-04-04T09:53:42.247Z,29.70
2023-04-04T09:56:09.395Z,29.90
2023-04-04T09:58:44.128Z,29.70
2023-04-04T10:01:18.239Z,29.80
2023-04-04T10:03:53.646Z,30.00
2023-04-04T10:06:21.399Z,30.00
2023-04-04T10:08:49.177Z,29.90
2023-04-04T10:11:30.006Z,29.60
2023-04-04T10:13:57.702Z,29.80
2023-04-04T10:16:25.835Z,29.40
2023-04-04T10:18:53.561Z,29.60
2023-04-04T10:21:21.332Z,29.10
2023-04-04T10:23:49.431Z,29.00
2023-04-04T10:26:16.818Z,29.30
2023-04-04T10:28:44.341Z,29.80
2023-04-04T10:31:20.026Z,29.80
2023-04-04T10:34:04.885Z,29.30
2023-04-04T10:36:59.253Z,29.20
2023-04-04T10:39:27.333Z,29.20
2023-04-04T10:41:56.666Z,29.30
2023-04-04T10:44:33.968Z,29.20
2023-04-04T10:47:19.759Z,29.90
2023-04-04T10:49:47.832Z,29.70
2023-04-04T10:52:17.468Z,29.70
2023-04-04T10:54:45.751Z,29.60
2023-04-04T10:57:16.461Z,29.20
2023-04-04T11:00:07.768Z,29.00
2023-04-04T11:02:52.966Z,29.60
2023-04-04T11:05:41.136Z,29.50
2023-04-04T11:08:10.997Z,29.60
2023-04-04T11:10:45.691Z,29.80
2023-04-04T11:13:16.438Z,29.60
2023-04-04T11:15:58.622Z,29.70
2023-04-04T11:18:41.729Z,29.90
2023-04-04T11:21:10.157Z,30.00
2023-04-04T11:23:49.155Z,30.10
2023-04-04T11:26:35.817Z,30.30
2023-04-04T11:29:04.567Z,29.90
2023-04-04T11:31:47.961Z,29.50
2023-04-04T11:34:30.189Z,29.80
2023-04-04T11:36:58.090Z,29.90
2023-04-04T11:39:31.841Z,29.70
2023-04-04T11:42:05.220Z,30.30
2023-04-04T11:44:33.681Z,30.30
2023-04-04T11:47:06.531Z,29.60
2023-04-04T11:49:38.312Z,29.60
2023-04-04T11:52:07.164Z,30.00
2023-04-04T11:54:34.097Z,29.90
2023-04-04T11:57:01.645Z,30.00
2023-04-04T11:59:28.542Z,30.20
2023-04-04T12:01:55.529Z,30.40
2023-04-04T12:04:23.325Z,31.40
2023-04-04T12:06:52.744Z,30.90
2023-04-04T12:09:20.670Z,30.10
2023-04-04T12:11:48.343Z,29.20
2023-04-04T12:14:19.519Z,28.70
2023-04-04T12:16:49.331Z,28.10
2023-04-04T12:19:18.345Z,27.90
2023-04-04T12:21:46.785Z,27.70
2023-04-04T12:24:14.465Z,27.60
2023-04-04T12:26:47.262Z,27.60
2023-04-04T12:29:16.088Z,27.50
2023-04-04T12:31:45.194Z,27.30
2023-04-04T12:34:19.622Z,27.60
2023-04-04T12:36:52.831Z,27.80
2023-04-04T12:39:22.320Z,28.10
2023-04-04T12:41:58.802Z,28.90
2023-04-04T12:44:36.428Z,28.20
2023-04-04T12:47:09.019Z,27.60
2023-04-04T12:49:39.413Z,27.00
2023-04-04T12:52:08.980Z,26.50
2023-04-04T12:54:40.015Z,26.90
2023-04-04T12:57:08.235Z,26.20
2023-04-04T12:59:36.807Z,26.10
2023-04-04T13:02:09.157Z,26.10
2023-04-04T13:04:36.214Z,26.20
2023-04-04T13:07:04.228Z,26.30
2023-04-04T13:09:32.031Z,26.40
2023-04-04T13:12:08.618Z,26.20
2023-04-04T13:14:57.365Z,26.10
2023-04-04T13:17:24.386Z,26.40
2023-04-04T13:19:52.286Z,26.10
2023-04-04T13:22:19.212Z,25.60
2023-04-04T13:24:46.050Z,25.00
2023-04-04T13:27:12.906Z,25.40
2023-04-04T13:29:39.804Z,25.30
2023-04-04T13:32:06.749Z,25.30
2023-04-04T13:34:36.138Z,25.30
2023-04-04T13:37:03.085Z,25.30
2023-04-04T13:39:30.036Z,25.30
2023-04-04T13:41:57.498Z,25.20
2023-04-04T13:44:26.033Z,25.40
2023-04-04T13:46:54.017Z,25.60
2023-04-04T13:49:20.847Z,25.40
2023-04-04T13:51:48.628Z,25.30
2023-04-04T13:54:15.725Z,25.70
2023-04-04T13:56:42.625Z,25.60
2023-04-04T13:59:10.476Z,25.40
2023-04-04T14:01:38.386Z,25.30
2023-04-04T14:04:13.168Z,25.60
2023-04-04T14:06:49.424Z,26.00
2023-04-04T14:09:16.641Z,25.50
2023-04-04T14:11:43.644Z,25.30
2023-04-04T14:14:10.544Z,24.90
2023-04-04T14:16:37.582Z,24.80
2023-04-04T14:19:04.699Z,25.00
2023-04-04T14:21:31.577Z,25.00
2023-04-04T14:23:58.446Z,24.80
2023-04-04T14:26:25.494Z,24.90
2023-04-04T14:28:52.541Z,24.90
2023-04-04T14:31:19.698Z,24.30
2023-04-04T14:33:46.604Z,24.50
2023-04-04T14:36:14.928Z,24.20
2023-04-04T14:38:41.762Z,24.20
2023-04-04T14:41:08.619Z,24.30
2023-04-04T14:43:35.537Z,24.20
2023-04-04T14:46:02.446Z,23.10
2023-04-04T14:48:29.368Z,22.30
2023-04-04T14:50:56.435Z,21.90
2023-04-04T14:53:23.322Z,21.70
2023-04-04T14:55:50.155Z,20.80
2023-04-04T14:58:17.919Z,20.80
2023-04-04T15:00:46.149Z,20.00
2023-04-04T15:03:13.058Z,20.10
2023-04-04T15:05:40.136Z,19.40
2023-04-04T15:08:07.293Z,18.70
2023-04-04T15:10:34.383Z,18.70
2023-04-04T15:13:01.512Z,18.70
2023-04-04T15:15:29.281Z,18.40
2023-04-04T15:17:56.329Z,18.10
2023-04-04T15:20:23.304Z,17.90
2023-04-04T15:22:50.357Z,17.90
2023-04-04T15:25:17.438Z,17.60
2023-04-04T15:27:44.357Z,17.70
2023-04-04T15:30:12.512Z,17.20
2023-04-04T15:32:39.442Z,17.30
2023-04-04T15:35:15.015Z,17.20
2023-04-04T15:37:41.827Z,17.00
2023-04-04T15:40:09.285Z,17.30
2023-04-04T15:42:36.324Z,16.80
2023-04-04T15:45:04.532Z,16.70
2023-04-04T15:47:31.454Z,16.80
2023-04-04T15:49:58.373Z,17.00
2023-04-04T15:52:25.266Z,17.00
2023-04-04T15:54:52.449Z,17.70
2023-04-04T15:57:19.471Z,17.20
2023-04-04T15:59:47.606Z,17.10
2023-04-04T16:02:14.736Z,17.00
2023-04-04T16:04:42.090Z,17.00
2023-04-04T16:07:08.982Z,17.10
2023-04-04T16:09:36.397Z,16.70
2023-04-04T16:12:03.394Z,16.80
2023-04-04T16:14:30.290Z,16.90
2023-04-04T16:16:57.387Z,16.80
2023-04-04T16:19:24.241Z,16.90
2023-04-04T16:21:51.246Z,17.10
2023-04-04T16:24:18.112Z,17.10
2023-04-04T16:26:49.018Z,17.20
2023-04-04T16:29:20.029Z,17.10
2023-04-04T16:31:47.150Z,17.30
2023-04-04T16:34:15.050Z,16.90
2023-04-04T16:36:41.939Z,16.80
2023-04-04T16:39:08.938Z,16.90
2023-04-04T16:41:36.661Z,17.00
2023-04-04T16:44:03.581Z,17.10
2023-04-04T16:46:30.506Z,17.50
2023-04-04T16:48:57.579Z,18.00
2023-04-04T16:51:24.469Z,18.60
2023-04-04T16:53:51.379Z,18.90
2023-04-04T16:56:18.351Z,19.30
2023-04-04T16:58:46.080Z,19.50
2023-04-04T17:01:15.060Z,19.60
2023-04-04T17:03:42.157Z,20.10
2023-04-04T17:06:09.211Z,20.40
2023-04-04T17:08:36.657Z,20.40
2023-04-04T17:11:03.804Z,20.70
2023-04-04T17:13:31.481Z,21.00
2023-04-04T17:15:58.339Z,21.00
2023-04-04T17:18:25.444Z,21.30
2023-04-04T17:20:52.762Z,21.70
2023-04-04T17:23:19.628Z,22.50
2023-04-04T17:25:46.554Z,22.20
2023-04-04T17:28:13.510Z,22.40
2023-04-04T17:30:41.099Z,22.80
2023-04-04T17:33:09.009Z,22.90
2023-04-04T17:35:36.133Z,23.10
2023-04-04T17:38:03.036Z,23.40
2023-04-04T17:40:30.044Z,23.60
2023-04-04T17:42:56.917Z,23.90
2023-04-04T17:45:23.836Z,24.20
2023-04-04T17:47:50.800Z,24.40
2023-04-04T17:50:17.737Z,24.60
2023-04-04T17:52:44.631Z,24.80
2023-04-04T17:55:11.654Z,25.10
2023-04-04T17:57:38.554Z,25.40
2023-04-04T18:00:06.143Z,25.60
2023-04-04T18:02:33.070Z,25.70
2023-04-04T18:04:59.948Z,25.90
2023-04-04T18:07:27.170Z,26.20
2023-04-04T18:09:54.064Z,26.90
2023-04-04T18:12:21.027Z,26.40
2023-04-04T18:14:48.529Z,26.60
2023-04-04T18:17:16.200Z,26.50
2023-04-04T18:19:43.100Z,26.50
2023-04-04T18:22:10.131Z,26.80
2023-04-04T18:24:37.399Z,26.90
2023-04-04T18:27:04.327Z,26.90
2023-04-04T18:29:32.706Z,26.90
2023-04-04T18:32:03.892Z,27.10
2023-04-04T18:34:31.123Z,27.00
2023-04-04T18:36:59.669Z,26.90
2023-04-04T18:39:26.641Z,26.90
2023-04-04T18:41:53.913Z,27.10
2023-04-04T18:44:21.876Z,27.10
2023-04-04T18:46:48.909Z,26.90
2023-04-04T18:49:15.934Z,26.90
2023-04-04T18:51:42.859Z,27.00
2023-04-04T18:54:09.759Z,27.10
2023-04-04T18:56:38.477Z,26.80
2023-04-04T18:59:06.152Z,27.10
2023-04-04T19:01:33.653Z,27.20
2023-04-04T19:04:03.372Z,27.20
2023-04-04T19:06:32.165Z,27.10
2023-04-04T19:09:04.297Z,27.30
2023-04-04T19:11:31.746Z,27.40
2023-04-04T19:13:58.790Z,27.30
2023-04-04T19:16:25.786Z,27.30
2023-04-04T19:18:52.697Z,27.20
2023-04-04T19:21:19.601Z,27.40
2023-04-04T19:23:48.344Z,27.40
2023-04-04T19:26:16.971Z,27.50
2023-04-04T19:28:46.363Z,27.50
2023-04-04T19:31:24.612Z,27.60
2023-04-04T19:33:54.955Z,27.40
2023-04-04T19:36:22.377Z,27.60
2023-04-04T19:38:49.477Z,27.50
2023-04-04T19:41:16.755Z,27.60
2023-04-04T19:43:45.930Z,27.70
2023-04-04T19:46:20.109Z,27.70
2023-04-04T19:48:49.258Z,27.50
2023-04-04T19:51:20.031Z,27.70
2023-04-04T19:53:49.512Z,27.80
2023-04-04T19:56:18.572Z,27.70
2023-04-04T19:58:46.051Z,27.60
2023-04-04T20:01:22.836Z,27.70
2023-04-04T20:03:50.227Z,27.70
2023-04-04T20:06:22.994Z,27.80
2023-04-04T20:08:54.125Z,28.00
2023-04-04T20:11:33.271Z,28.00
2023-04-04T20:14:02.378Z,28.00
2023-04-04T20:16:30.275Z,28.10
2023-04-04T20:18:59.518Z,28.00
2023-04-04T20:21:28.628Z,28.10
2023-04-04T20:23:58.896Z,28.40
2023-04-04T20:26:59.927Z,28.30
2023-04-04T20:29:29.301Z,28.30
2023-04-04T20:32:22.615Z,28.30
2023-04-04T20:34:50.633Z,28.40
2023-04-04T20:37:23.392Z,28.60
2023-04-04T20:40:12.853Z,28.50
2023-04-04T20:42:40.852Z,28.50
2023-04-04T20:45:13.422Z,28.50
2023-04-04T20:47:57.957Z,28.60
2023-04-04T20:50:27.202Z,28.50
2023-04-04T20:52:57.389Z,28.50
2023-04-04T20:55:26.254Z,28.40
2023-04-04T20:57:56.668Z,28.40
2023-04-04T21:00:30.212Z,28.60
2023-04-04T21:02:59.412Z,28.60
2023-04-04T21:05:31.825Z,28.70
2023-04-04T21:08:00.314Z,29.10
2023-04-04T21:10:30.153Z,29.10
2023-04-04T21:12:58.399Z,29.30
2023-04-04T21:15:30.634Z,29.30
2023-04-04T21:18:06.853Z,29.60
2023-04-04T21:20:46.269Z,29.70
2023-04-04T21:23:25.562Z,29.70
2023-04-04T21:25:56.600Z,29.90
2023-04-04T21:28:33.642Z,30.00
2023-04-04T21:31:02.377Z,30.20
2023-04-04T21:33:29.261Z,30.40
2023-04-04T21:35:56.481Z,30.50
2023-04-04T21:38:34.840Z,31.30
2023-04-04T21:41:11.986Z,31.00
2023-04-04T21:43:38.826Z,31.00
2023-04-04T21:46:05.684Z,31.10
2023-04-04T21:48:32.619Z,31.20
2023-04-04T21:50:59.584Z,31.30
2023-04-04T21:53:26.519Z,31.30
2023-04-04T21:55:53.460Z,31.40
2023-04-04T21:58:20.313Z,31.50
2023-04-04T22:00:47.174Z,32.30
2023-04-04T22:03:14.680Z,31.60
2023-04-04T22:05:41.618Z,31.90
2023-04-04T22:08:09.149Z,31.90
2023-04-04T22:10:45.446Z,32.10
2023-04-04T22:13:17.197Z,32.10
2023-04-04T22:15:48.029Z,31.80
2023-04-04T22:18:15.982Z,32.10
2023-04-04T22:20:47.618Z,32.20
2023-04-04T22:23:17.733Z,32.30
2023-04-04T22:25:44.672Z,32.20
2023-04-04T22:28:11.590Z,32.10
2023-04-04T22:30:39.388Z,32.00
2023-04-04T22:33:06.460Z,32.10
2023-04-04T22:35:33.785Z,32.30
2023-04-04T22:38:01.617Z,32.30
2023-04-04T22:40:29.275Z,32.20
2023-04-04T22:42:56.404Z,32.20
2023-04-04T22:45:24.423Z,32.30
2023-04-04T22:47:51.596Z,32.40
2023-04-04T22:50:20.393Z,32.20
2023-04-04T22:52:47.275Z,32.20
2023-04-04T22:55:17.190Z,32.10
2023-04-04T22:57:44.429Z,32.00
2023-04-04T23:00:13.473Z,32.10
2023-04-04T23:02:42.115Z,32.30
2023-04-04T23:05:10.181Z,32.30
2023-04-04T23:07:38.293Z,32.20
2023-04-04T23:10:06.463Z,32.40
2023-04-04T23:12:33.409Z,32.40
2023-04-04T23:15:01.608Z,32.20
2023-04-04T23:17:28.830Z,32.30
2023-04-04T23:19:56.461Z,32.20
2023-04-04T23:22:24.035Z,32.30
2023-04-04T23:24:51.585Z,32.30
2023-04-04T23:27:19.711Z,32.40
2023-04-04T23:29:47.448Z,32.60
2023-04-04T23:32:14.266Z,32.40
2023-04-04T23:34:41.196Z,32.60
2023-04-04T23:37:08.069Z,32.50
2023-04-04T23:39:35.386Z,32.50
2023-04-04T23:42:02.850Z,32.60
2023-04-04T23:44:29.677Z,32.70
2023-04-04T23:46:56.663Z,32.70
2023-04-04T23:49:23.737Z,32.60
2023-04-04T23:51:51.008Z,32.70
2023-04-04T23:54:17.870Z,32.50
2023-04-04T23:56:44.777Z,32.60
2023-04-04T23:59:11.696Z,32.60
